sensor_id;sensor_type;location;lat;lon;timestamp;pressure;altitude;pressure_sealevel;temperature;humidity
62592;BME280;48659;41.622;2.276;2023-04-06T00:00:27;100149.79;;;8.15;54.95
62592;BME280;48659;41.622;2.276;2023-04-06T00:02:55;100145.09;;;8.17;55.36
62592;BME280;48659;41.622;2.276;2023-04-06T00:05:22;100146.76;;;8.56;53.99
62592;BME280;48659;41.622;2.276;2023-04-06T00:07:49;100152.16;;;8.91;53.31
62592;BME280;48659;41.622;2.276;2023-04-06T00:10:16;100155.65;;;8.47;53.13
62592;BME280;48659;41.622;2.276;2023-04-06T00:12:44;100157.64;;;8.53;53.20
62592;BME280;48659;41.622;2.276;2023-04-06T00:15:11;100160.59;;;8.69;53.53
62592;BME280;48659;41.622;2.276;2023-04-06T00:17:39;100164.23;;;7.81;54.10
62592;BME280;48659;41.622;2.276;2023-04-06T00:20:07;100168.52;;;7.93;55.26
62592;BME280;48659;41.622;2.276;2023-04-06T00:22:35;100166.40;;;7.88;55.43
62592;BME280;48659;41.622;2.276;2023-04-06T00:25:03;100166.15;;;7.94;54.67
62592;BME280;48659;41.622;2.276;2023-04-06T00:27:31;100163.66;;;6.75;57.38
62592;BME280;48659;41.622;2.276;2023-04-06T00:29:58;100164.25;;;7.81;55.16
62592;BME280;48659;41.622;2.276;2023-04-06T00:32:26;100160.20;;;9.07;51.77
62592;BME280;48659;41.622;2.276;2023-04-06T00:35:02;100159.10;;;10.06;49.95
62592;BME280;48659;41.622;2.276;2023-04-06T00:37:29;100166.84;;;7.92;54.64
62592;BME280;48659;41.622;2.276;2023-04-06T00:40:03;100163.85;;;7.61;55.72
62592;BME280;48659;41.622;2.276;2023-04-06T00:42:30;100164.23;;;7.78;56.38
62592;BME280;48659;41.622;2.276;2023-04-06T00:44:59;100161.78;;;8.12;54.93
62592;BME280;48659;41.622;2.276;2023-04-06T00:47:26;100158.98;;;7.11;58.46
62592;BME280;48659;41.622;2.276;2023-04-06T00:49:54;100161.72;;;5.94;61.13
62592;BME280;48659;41.622;2.276;2023-04-06T00:52:22;100162.36;;;6.01;61.71
62592;BME280;48659;41.622;2.276;2023-04-06T00:54:50;100158.44;;;6.51;59.72
62592;BME280;48659;41.622;2.276;2023-04-06T00:57:18;100153.63;;;6.31;59.98
62592;BME280;48659;41.622;2.276;2023-04-06T00:59:46;100151.96;;;6.63;60.23
62592;BME280;48659;41.622;2.276;2023-04-06T01:02:14;100149.72;;;5.75;61.58
62592;BME280;48659;41.622;2.276;2023-04-06T01:04:41;100146.93;;;5.61;63.99
62592;BME280;48659;41.622;2.276;2023-04-06T01:07:09;100138.68;;;6.58;61.55
62592;BME280;48659;41.622;2.276;2023-04-06T01:09:36;100135.00;;;6.52;60.24
62592;BME280;48659;41.622;2.276;2023-04-06T01:12:03;100132.99;;;7.87;56.23
62592;BME280;48659;41.622;2.276;2023-04-06T01:14:30;100133.56;;;7.51;56.48
62592;BME280;48659;41.622;2.276;2023-04-06T01:17:02;100133.75;;;8.12;53.96
62592;BME280;48659;41.622;2.276;2023-04-06T01:19:30;100130.22;;;7.85;54.34
62592;BME280;48659;41.622;2.276;2023-04-06T01:22:01;100127.56;;;8.16;55.37
62592;BME280;48659;41.622;2.276;2023-04-06T01:24:29;100138.45;;;6.94;57.81
62592;BME280;48659;41.622;2.276;2023-04-06T01:26:56;100136.33;;;7.52;56.24
62592;BME280;48659;41.622;2.276;2023-04-06T01:29:24;100130.66;;;8.42;54.54
62592;BME280;48659;41.622;2.276;2023-04-06T01:31:52;100130.77;;;9.32;52.36
62592;BME280;48659;41.622;2.276;2023-04-06T01:34:19;100134.44;;;9.47;50.93
62592;BME280;48659;41.622;2.276;2023-04-06T01:36:47;100130.85;;;9.73;50.35
62592;BME280;48659;41.622;2.276;2023-04-06T01:39:14;100127.44;;;9.98;48.66
62592;BME280;48659;41.622;2.276;2023-04-06T01:41:42;100126.66;;;10.54;47.83
62592;BME280;48659;41.622;2.276;2023-04-06T01:44:09;100127.01;;;10.34;47.52
62592;BME280;48659;41.622;2.276;2023-04-06T01:46:37;100125.26;;;10.40;46.04
62592;BME280;48659;41.622;2.276;2023-04-06T01:49:05;100123.81;;;9.51;47.57
62592;BME280;48659;41.622;2.276;2023-04-06T01:51:32;100124.44;;;9.72;47.72
62592;BME280;48659;41.622;2.276;2023-04-06T01:54:02;100126.10;;;7.86;51.79
62592;BME280;48659;41.622;2.276;2023-04-06T01:56:29;100121.53;;;9.92;48.57
62592;BME280;48659;41.622;2.276;2023-04-06T01:58:56;100117.96;;;8.97;49.34
62592;BME280;48659;41.622;2.276;2023-04-06T02:01:24;100118.02;;;7.38;52.48
62592;BME280;48659;41.622;2.276;2023-04-06T02:03:51;100121.30;;;6.26;56.36
62592;BME280;48659;41.622;2.276;2023-04-06T02:06:19;100113.37;;;7.98;53.52
62592;BME280;48659;41.622;2.276;2023-04-06T02:08:46;100114.04;;;9.03;50.63
62592;BME280;48659;41.622;2.276;2023-04-06T02:11:14;100114.27;;;9.40;49.22
62592;BME280;48659;41.622;2.276;2023-04-06T02:13:41;100118.99;;;7.28;54.10
62592;BME280;48659;41.622;2.276;2023-04-06T02:16:08;100122.43;;;6.34;56.25
62592;BME280;48659;41.622;2.276;2023-04-06T02:18:35;100120.39;;;6.29;56.43
62592;BME280;48659;41.622;2.276;2023-04-06T02:21:03;100112.28;;;7.21;54.33
62592;BME280;48659;41.622;2.276;2023-04-06T02:23:30;100113.07;;;5.75;58.49
62592;BME280;48659;41.622;2.276;2023-04-06T02:25:57;100112.07;;;6.59;56.33
62592;BME280;48659;41.622;2.276;2023-04-06T02:28:25;100112.26;;;6.54;57.30
62592;BME280;48659;41.622;2.276;2023-04-06T02:30:53;100110.77;;;7.26;55.03
62592;BME280;48659;41.622;2.276;2023-04-06T02:33:21;100106.89;;;7.66;53.99
62592;BME280;48659;41.622;2.276;2023-04-06T02:35:48;100109.20;;;6.62;56.04
62592;BME280;48659;41.622;2.276;2023-04-06T02:38:16;100096.36;;;7.99;53.20
62592;BME280;48659;41.622;2.276;2023-04-06T02:40:43;100106.93;;;6.45;54.94
62592;BME280;48659;41.622;2.276;2023-04-06T02:43:11;100105.99;;;6.64;54.53
62592;BME280;48659;41.622;2.276;2023-04-06T02:45:38;100099.00;;;8.82;50.04
62592;BME280;48659;41.622;2.276;2023-04-06T02:48:06;100101.65;;;8.29;50.70
62592;BME280;48659;41.622;2.276;2023-04-06T02:50:33;100101.17;;;9.39;48.56
62592;BME280;48659;41.622;2.276;2023-04-06T02:53:00;100105.29;;;7.37;51.97
62592;BME280;48659;41.622;2.276;2023-04-06T02:55:28;100098.89;;;8.98;49.24
62592;BME280;48659;41.622;2.276;2023-04-06T02:57:55;100099.28;;;8.06;49.53
62592;BME280;48659;41.622;2.276;2023-04-06T03:00:23;100095.07;;;8.79;48.54
62592;BME280;48659;41.622;2.276;2023-04-06T03:02:51;100101.14;;;6.88;52.73
62592;BME280;48659;41.622;2.276;2023-04-06T03:05:18;100097.32;;;7.15;53.05
62592;BME280;48659;41.622;2.276;2023-04-06T03:07:46;100097.75;;;8.19;51.39
62592;BME280;48659;41.622;2.276;2023-04-06T03:10:13;100091.94;;;8.11;50.68
62592;BME280;48659;41.622;2.276;2023-04-06T03:12:40;100100.68;;;6.94;52.40
62592;BME280;48659;41.622;2.276;2023-04-06T03:15:09;100094.89;;;8.72;49.26
62592;BME280;48659;41.622;2.276;2023-04-06T03:17:36;100088.80;;;9.20;48.28
62592;BME280;48659;41.622;2.276;2023-04-06T03:20:04;100091.36;;;8.63;49.22
62592;BME280;48659;41.622;2.276;2023-04-06T03:22:31;100099.47;;;7.03;52.47
62592;BME280;48659;41.622;2.276;2023-04-06T03:24:58;100099.76;;;7.08;53.56
62592;BME280;48659;41.622;2.276;2023-04-06T03:27:26;100096.32;;;6.08;54.90
62592;BME280;48659;41.622;2.276;2023-04-06T03:29:53;100101.59;;;6.76;53.87
62592;BME280;48659;41.622;2.276;2023-04-06T03:32:21;100102.55;;;5.69;56.34
62592;BME280;48659;41.622;2.276;2023-04-06T03:34:48;100100.93;;;6.27;54.97
62592;BME280;48659;41.622;2.276;2023-04-06T03:37:15;100100.23;;;7.36;54.30
62592;BME280;48659;41.622;2.276;2023-04-06T03:39:42;100098.17;;;7.34;52.89
62592;BME280;48659;41.622;2.276;2023-04-06T03:42:10;100103.41;;;7.01;53.09
62592;BME280;48659;41.622;2.276;2023-04-06T03:44:37;100107.98;;;7.25;53.75
62592;BME280;48659;41.622;2.276;2023-04-06T03:47:05;100105.20;;;7.63;52.47
62592;BME280;48659;41.622;2.276;2023-04-06T03:49:32;100106.13;;;5.90;54.43
62592;BME280;48659;41.622;2.276;2023-04-06T03:52:01;100105.30;;;5.85;55.45
62592;BME280;48659;41.622;2.276;2023-04-06T03:54:28;100102.18;;;6.81;51.54
62592;BME280;48659;41.622;2.276;2023-04-06T03:56:56;100098.61;;;6.39;52.99
62592;BME280;48659;41.622;2.276;2023-04-06T03:59:24;100096.24;;;5.52;53.51
62592;BME280;48659;41.622;2.276;2023-04-06T04:01:52;100096.19;;;6.55;51.37
62592;BME280;48659;41.622;2.276;2023-04-06T04:04:19;100092.66;;;8.06;48.18
62592;BME280;48659;41.622;2.276;2023-04-06T04:06:46;100101.06;;;6.59;50.98
62592;BME280;48659;41.622;2.276;2023-04-06T04:09:13;100103.32;;;6.22;52.24
62592;BME280;48659;41.622;2.276;2023-04-06T04:11:40;100101.50;;;6.35;52.00
62592;BME280;48659;41.622;2.276;2023-04-06T04:14:08;100097.77;;;7.55;49.66
62592;BME280;48659;41.622;2.276;2023-04-06T04:16:36;100097.03;;;8.09;48.70
62592;BME280;48659;41.622;2.276;2023-04-06T04:19:03;100098.26;;;7.24;49.56
62592;BME280;48659;41.622;2.276;2023-04-06T04:21:31;100104.32;;;5.66;53.40
62592;BME280;48659;41.622;2.276;2023-04-06T04:23:58;100105.28;;;7.59;49.49
62592;BME280;48659;41.622;2.276;2023-04-06T04:26:26;100101.37;;;7.75;49.58
62592;BME280;48659;41.622;2.276;2023-04-06T04:28:55;100099.47;;;6.30;52.06
62592;BME280;48659;41.622;2.276;2023-04-06T04:31:22;100101.55;;;7.04;52.36
62592;BME280;48659;41.622;2.276;2023-04-06T04:33:49;100100.50;;;7.19;50.49
62592;BME280;48659;41.622;2.276;2023-04-06T04:36:17;100098.41;;;6.10;53.41
62592;BME280;48659;41.622;2.276;2023-04-06T04:38:44;100099.84;;;6.54;54.18
62592;BME280;48659;41.622;2.276;2023-04-06T04:41:11;100103.66;;;7.80;51.23
62592;BME280;48659;41.622;2.276;2023-04-06T04:43:38;100106.58;;;7.76;50.07
62592;BME280;48659;41.622;2.276;2023-04-06T04:46:05;100111.55;;;7.56;50.84
62592;BME280;48659;41.622;2.276;2023-04-06T04:48:33;100115.47;;;6.09;53.21
62592;BME280;48659;41.622;2.276;2023-04-06T04:51:01;100109.53;;;8.28;48.23
62592;BME280;48659;41.622;2.276;2023-04-06T04:53:28;100115.75;;;7.71;49.37
62592;BME280;48659;41.622;2.276;2023-04-06T04:55:56;100110.25;;;8.29;47.72
62592;BME280;48659;41.622;2.276;2023-04-06T04:58:23;100110.21;;;8.48;47.78
62592;BME280;48659;41.622;2.276;2023-04-06T05:00:50;100115.71;;;6.30;51.65
62592;BME280;48659;41.622;2.276;2023-04-06T05:03:21;100116.25;;;8.09;48.42
62592;BME280;48659;41.622;2.276;2023-04-06T05:05:50;100112.50;;;8.81;46.60
62592;BME280;48659;41.622;2.276;2023-04-06T05:08:18;100111.22;;;9.06;45.83
62592;BME280;48659;41.622;2.276;2023-04-06T05:10:46;100115.51;;;9.40;45.61
62592;BME280;48659;41.622;2.276;2023-04-06T05:13:13;100116.00;;;9.29;45.40
62592;BME280;48659;41.622;2.276;2023-04-06T05:15:41;100114.92;;;9.43;45.48
62592;BME280;48659;41.622;2.276;2023-04-06T05:18:09;100115.29;;;9.43;45.03
62592;BME280;48659;41.622;2.276;2023-04-06T05:20:39;100115.94;;;9.78;45.09
62592;BME280;48659;41.622;2.276;2023-04-06T05:23:06;100116.30;;;9.71;44.10
62592;BME280;48659;41.622;2.276;2023-04-06T05:25:34;100123.32;;;9.49;44.97
62592;BME280;48659;41.622;2.276;2023-04-06T05:28:02;100130.11;;;8.78;46.25
62592;BME280;48659;41.622;2.276;2023-04-06T05:30:29;100130.98;;;9.15;45.87
62592;BME280;48659;41.622;2.276;2023-04-06T05:32:56;100132.94;;;8.84;46.33
62592;BME280;48659;41.622;2.276;2023-04-06T05:35:23;100137.37;;;8.98;46.15
62592;BME280;48659;41.622;2.276;2023-04-06T05:37:51;100144.17;;;9.18;45.90
62592;BME280;48659;41.622;2.276;2023-04-06T05:40:18;100146.66;;;9.47;46.36
62592;BME280;48659;41.622;2.276;2023-04-06T05:42:46;100150.88;;;9.86;45.65
62592;BME280;48659;41.622;2.276;2023-04-06T05:45:13;100153.55;;;9.38;45.31
62592;BME280;48659;41.622;2.276;2023-04-06T05:47:40;100158.16;;;9.90;43.87
62592;BME280;48659;41.622;2.276;2023-04-06T05:50:08;100167.61;;;7.74;47.28
62592;BME280;48659;41.622;2.276;2023-04-06T05:52:35;100168.43;;;5.70;51.00
62592;BME280;48659;41.622;2.276;2023-04-06T05:55:03;100168.82;;;6.29;49.42
62592;BME280;48659;41.622;2.276;2023-04-06T05:57:31;100168.45;;;6.25;50.05
62592;BME280;48659;41.622;2.276;2023-04-06T05:59:58;100169.69;;;6.94;48.67
62592;BME280;48659;41.622;2.276;2023-04-06T06:02:25;100173.82;;;7.14;47.96
62592;BME280;48659;41.622;2.276;2023-04-06T06:04:53;100172.85;;;6.24;49.91
62592;BME280;48659;41.622;2.276;2023-04-06T06:07:20;100180.04;;;6.12;49.57
62592;BME280;48659;41.622;2.276;2023-04-06T06:09:47;100183.77;;;7.06;48.14
62592;BME280;48659;41.622;2.276;2023-04-06T06:12:14;100189.45;;;6.39;49.45
62592;BME280;48659;41.622;2.276;2023-04-06T06:14:42;100192.73;;;5.15;52.89
62592;BME280;48659;41.622;2.276;2023-04-06T06:17:09;100189.85;;;6.23;50.25
62592;BME280;48659;41.622;2.276;2023-04-06T06:19:36;100189.03;;;7.21;48.61
62592;BME280;48659;41.622;2.276;2023-04-06T06:22:03;100195.07;;;7.97;46.85
62592;BME280;48659;41.622;2.276;2023-04-06T06:24:31;100190.78;;;6.15;50.36
62592;BME280;48659;41.622;2.276;2023-04-06T06:26:59;100189.39;;;6.98;48.67
62592;BME280;48659;41.622;2.276;2023-04-06T06:29:26;100191.77;;;8.26;46.45
62592;BME280;48659;41.622;2.276;2023-04-06T06:31:54;100192.10;;;8.48;46.97
62592;BME280;48659;41.622;2.276;2023-04-06T06:34:21;100190.15;;;8.95;45.39
62592;BME280;48659;41.622;2.276;2023-04-06T06:36:49;100191.29;;;8.89;45.08
62592;BME280;48659;41.622;2.276;2023-04-06T06:39:17;100198.84;;;6.34;49.89
62592;BME280;48659;41.622;2.276;2023-04-06T06:41:44;100202.77;;;7.86;48.22
62592;BME280;48659;41.622;2.276;2023-04-06T06:44:11;100201.79;;;7.43;48.45
62592;BME280;48659;41.622;2.276;2023-04-06T06:46:39;100204.49;;;7.58;47.91
62592;BME280;48659;41.622;2.276;2023-04-06T06:49:06;100197.01;;;9.31;44.61
62592;BME280;48659;41.622;2.276;2023-04-06T06:51:33;100199.10;;;8.52;44.96
62592;BME280;48659;41.622;2.276;2023-04-06T06:54:01;100204.35;;;7.68;45.33
62592;BME280;48659;41.622;2.276;2023-04-06T06:56:29;100206.95;;;7.56;47.26
62592;BME280;48659;41.622;2.276;2023-04-06T06:58:55;100206.97;;;7.69;46.50
62592;BME280;48659;41.622;2.276;2023-04-06T07:01:23;100201.25;;;9.04;44.55
62592;BME280;48659;41.622;2.276;2023-04-06T07:03:50;100208.46;;;7.44;47.50
62592;BME280;48659;41.622;2.276;2023-04-06T07:06:17;100205.97;;;8.45;46.08
62592;BME280;48659;41.622;2.276;2023-04-06T07:08:45;100206.14;;;7.82;45.89
62592;BME280;48659;41.622;2.276;2023-04-06T07:11:12;100207.19;;;8.06;45.78
62592;BME280;48659;41.622;2.276;2023-04-06T07:13:39;100207.64;;;8.35;45.98
62592;BME280;48659;41.622;2.276;2023-04-06T07:16:07;100210.34;;;8.48;45.66
62592;BME280;48659;41.622;2.276;2023-04-06T07:18:34;100199.04;;;8.93;44.49
62592;BME280;48659;41.622;2.276;2023-04-06T07:21:01;100208.73;;;7.46;47.75
62592;BME280;48659;41.622;2.276;2023-04-06T07:23:29;100200.86;;;9.17;44.08
62592;BME280;48659;41.622;2.276;2023-04-06T07:25:56;100204.79;;;9.07;43.77
62592;BME280;48659;41.622;2.276;2023-04-06T07:28:23;100206.09;;;10.14;42.53
62592;BME280;48659;41.622;2.276;2023-04-06T07:30:50;100205.30;;;9.99;42.47
62592;BME280;48659;41.622;2.276;2023-04-06T07:33:18;100204.46;;;9.31;43.53
62592;BME280;48659;41.622;2.276;2023-04-06T07:35:45;100205.15;;;9.45;43.36
62592;BME280;48659;41.622;2.276;2023-04-06T07:38:14;100208.36;;;9.65;43.45
62592;BME280;48659;41.622;2.276;2023-04-06T07:40:42;100209.78;;;10.23;42.79
62592;BME280;48659;41.622;2.276;2023-04-06T07:43:09;100209.03;;;9.73;43.39
62592;BME280;48659;41.622;2.276;2023-04-06T07:45:36;100204.59;;;10.49;41.88
62592;BME280;48659;41.622;2.276;2023-04-06T07:48:03;100206.21;;;10.22;42.40
62592;BME280;48659;41.622;2.276;2023-04-06T07:50:31;100206.41;;;10.51;42.87
62592;BME280;48659;41.622;2.276;2023-04-06T07:52:59;100211.64;;;9.93;43.56
62592;BME280;48659;41.622;2.276;2023-04-06T07:55:26;100210.47;;;9.58;44.78
62592;BME280;48659;41.622;2.276;2023-04-06T07:57:54;100209.19;;;11.33;41.51
62592;BME280;48659;41.622;2.276;2023-04-06T08:00:22;100209.16;;;10.46;43.02
62592;BME280;48659;41.622;2.276;2023-04-06T08:02:49;100213.21;;;10.27;42.84
62592;BME280;48659;41.622;2.276;2023-04-06T08:05:17;100214.34;;;10.66;42.39
62592;BME280;48659;41.622;2.276;2023-04-06T08:07:45;100212.40;;;10.77;43.13
62592;BME280;48659;41.622;2.276;2023-04-06T08:10:12;100212.58;;;12.16;40.51
62592;BME280;48659;41.622;2.276;2023-04-06T08:12:40;100206.24;;;13.08;38.94
62592;BME280;48659;41.622;2.276;2023-04-06T08:15:07;100220.49;;;11.53;40.96
62592;BME280;48659;41.622;2.276;2023-04-06T08:17:35;100217.33;;;13.70;37.68
62592;BME280;48659;41.622;2.276;2023-04-06T08:20:02;100209.84;;;14.49;36.11
62592;BME280;48659;41.622;2.276;2023-04-06T08:22:29;100215.02;;;13.20;37.60
62592;BME280;48659;41.622;2.276;2023-04-06T08:24:56;100213.15;;;14.94;35.78
62592;BME280;48659;41.622;2.276;2023-04-06T08:27:24;100217.83;;;13.55;38.31
62592;BME280;48659;41.622;2.276;2023-04-06T08:29:51;100214.02;;;15.34;35.67
62592;BME280;48659;41.622;2.276;2023-04-06T08:32:18;100215.99;;;15.46;35.24
62592;BME280;48659;41.622;2.276;2023-04-06T08:34:46;100221.03;;;15.51;35.28
62592;BME280;48659;41.622;2.276;2023-04-06T08:37:13;100221.23;;;15.58;35.11
62592;BME280;48659;41.622;2.276;2023-04-06T08:39:40;100217.84;;;15.57;35.10
62592;BME280;48659;41.622;2.276;2023-04-06T08:42:12;100218.32;;;15.53;35.25
62592;BME280;48659;41.622;2.276;2023-04-06T08:44:44;100219.51;;;14.03;37.65
62592;BME280;48659;41.622;2.276;2023-04-06T08:47:12;100214.78;;;15.57;35.78
62592;BME280;48659;41.622;2.276;2023-04-06T08:49:39;100216.76;;;14.48;36.48
62592;BME280;48659;41.622;2.276;2023-04-06T08:52:07;100220.84;;;13.37;38.76
62592;BME280;48659;41.622;2.276;2023-04-06T08:54:35;100221.71;;;12.73;40.02
62592;BME280;48659;41.622;2.276;2023-04-06T08:57:03;100226.09;;;13.46;39.15
62592;BME280;48659;41.622;2.276;2023-04-06T08:59:31;100225.31;;;14.67;38.11
62592;BME280;48659;41.622;2.276;2023-04-06T09:02:02;100225.47;;;14.19;38.70
62592;BME280;48659;41.622;2.276;2023-04-06T09:04:31;100229.19;;;13.30;41.02
62592;BME280;48659;41.622;2.276;2023-04-06T09:06:58;100227.37;;;14.69;38.66
62592;BME280;48659;41.622;2.276;2023-04-06T09:09:26;100227.69;;;15.38;38.44
62592;BME280;48659;41.622;2.276;2023-04-06T09:11:54;100225.48;;;15.89;37.93
62592;BME280;48659;41.622;2.276;2023-04-06T09:14:34;100225.77;;;14.02;40.79
62592;BME280;48659;41.622;2.276;2023-04-06T09:17:03;100222.17;;;15.24;38.65
62592;BME280;48659;41.622;2.276;2023-04-06T09:19:31;100222.00;;;13.74;42.98
62592;BME280;48659;41.622;2.276;2023-04-06T09:22:03;100220.53;;;14.27;41.80
62592;BME280;48659;41.622;2.276;2023-04-06T09:24:41;100216.88;;;15.78;39.17
62592;BME280;48659;41.622;2.276;2023-04-06T09:27:09;100217.23;;;15.93;38.64
62592;BME280;48659;41.622;2.276;2023-04-06T09:29:37;100223.60;;;15.05;40.46
62592;BME280;48659;41.622;2.276;2023-04-06T09:32:05;100229.31;;;14.04;42.87
62592;BME280;48659;41.622;2.276;2023-04-06T09:34:33;100232.57;;;14.01;43.82
62592;BME280;48659;41.622;2.276;2023-04-06T09:37:12;100228.85;;;13.63;44.78
62592;BME280;48659;41.622;2.276;2023-04-06T09:39:40;100230.35;;;13.06;45.69
62592;BME280;48659;41.622;2.276;2023-04-06T09:42:08;100229.37;;;14.65;43.13
62592;BME280;48659;41.622;2.276;2023-04-06T09:44:36;100228.89;;;14.97;41.88
62592;BME280;48659;41.622;2.276;2023-04-06T09:47:06;100227.95;;;13.49;43.53
62592;BME280;48659;41.622;2.276;2023-04-06T09:49:36;100228.11;;;14.83;42.19
62592;BME280;48659;41.622;2.276;2023-04-06T09:52:06;100219.04;;;15.58;40.51
62592;BME280;48659;41.622;2.276;2023-04-06T09:54:35;100219.32;;;13.85;42.55
62592;BME280;48659;41.622;2.276;2023-04-06T09:57:07;100219.69;;;15.13;41.37
62592;BME280;48659;41.622;2.276;2023-04-06T09:59:43;100218.04;;;15.64;40.24
62592;BME280;48659;41.622;2.276;2023-04-06T10:02:18;100220.00;;;13.75;44.00
62592;BME280;48659;41.622;2.276;2023-04-06T10:04:53;100217.12;;;15.56;40.95
62592;BME280;48659;41.622;2.276;2023-04-06T10:07:23;100214.47;;;15.47;41.14
62592;BME280;48659;41.622;2.276;2023-04-06T10:09:51;100212.27;;;15.71;40.48
62592;BME280;48659;41.622;2.276;2023-04-06T10:12:20;100214.62;;;14.21;43.57
62592;BME280;48659;41.622;2.276;2023-04-06T10:14:48;100217.80;;;14.84;42.74
62592;BME280;48659;41.622;2.276;2023-04-06T10:17:17;100210.90;;;14.92;41.82
62592;BME280;48659;41.622;2.276;2023-04-06T10:19:49;100206.76;;;15.58;40.55
62592;BME280;48659;41.622;2.276;2023-04-06T10:22:24;100203.33;;;14.82;41.72
62592;BME280;48659;41.622;2.276;2023-04-06T10:24:54;100199.63;;;16.15;40.11
62592;BME280;48659;41.622;2.276;2023-04-06T10:27:35;100201.29;;;16.22;39.02
62592;BME280;48659;41.622;2.276;2023-04-06T10:30:04;100205.33;;;16.11;39.24
62592;BME280;48659;41.622;2.276;2023-04-06T10:32:33;100200.25;;;15.24;40.96
62592;BME280;48659;41.622;2.276;2023-04-06T10:35:06;100197.24;;;16.65;38.91
62592;BME280;48659;41.622;2.276;2023-04-06T10:37:48;100199.96;;;14.48;40.98
62592;BME280;48659;41.622;2.276;2023-04-06T10:40:21;100199.25;;;16.71;38.22
62592;BME280;48659;41.622;2.276;2023-04-06T10:42:50;100191.50;;;16.47;38.88
62592;BME280;48659;41.622;2.276;2023-04-06T10:45:22;100185.04;;;17.11;37.51
62592;BME280;48659;41.622;2.276;2023-04-06T10:47:50;100184.37;;;17.23;36.78
62592;BME280;48659;41.622;2.276;2023-04-06T10:50:19;100181.23;;;16.64;38.56
62592;BME280;48659;41.622;2.276;2023-04-06T10:52:47;100171.94;;;17.42;36.94
62592;BME280;48659;41.622;2.276;2023-04-06T10:55:26;100176.97;;;14.25;42.40
62592;BME280;48659;41.622;2.276;2023-04-06T10:57:55;100172.44;;;17.14;37.72
62592;BME280;48659;41.622;2.276;2023-04-06T11:00:22;100184.21;;;16.38;39.01
62592;BME280;48659;41.622;2.276;2023-04-06T11:02:50;100188.40;;;17.03;38.21
62592;BME280;48659;41.622;2.276;2023-04-06T11:05:17;100177.49;;;18.19;35.90
62592;BME280;48659;41.622;2.276;2023-04-06T11:07:44;100180.29;;;14.79;40.96
62592;BME280;48659;41.622;2.276;2023-04-06T11:10:20;100168.26;;;17.26;37.57
62592;BME280;48659;41.622;2.276;2023-04-06T11:12:53;100168.19;;;16.73;38.12
62592;BME280;48659;41.622;2.276;2023-04-06T11:15:20;100167.80;;;17.36;37.49
62592;BME280;48659;41.622;2.276;2023-04-06T11:17:48;100156.67;;;18.08;35.88
62592;BME280;48659;41.622;2.276;2023-04-06T11:20:16;100156.08;;;15.87;38.77
62592;BME280;48659;41.622;2.276;2023-04-06T11:22:51;100153.03;;;17.14;37.52
62592;BME280;48659;41.622;2.276;2023-04-06T11:25:19;100160.22;;;16.95;37.11
62592;BME280;48659;41.622;2.276;2023-04-06T11:27:47;100163.25;;;13.48;43.69
62592;BME280;48659;41.622;2.276;2023-04-06T11:30:15;100154.44;;;15.08;40.68
62592;BME280;48659;41.622;2.276;2023-04-06T11:32:44;100145.87;;;16.70;38.27
62592;BME280;48659;41.622;2.276;2023-04-06T11:35:13;100142.61;;;17.58;36.33
62592;BME280;48659;41.622;2.276;2023-04-06T11:37:46;100139.16;;;17.04;36.59
62592;BME280;48659;41.622;2.276;2023-04-06T11:40:13;100137.17;;;17.56;35.86
62592;BME280;48659;41.622;2.276;2023-04-06T11:42:41;100127.80;;;18.43;35.07
62592;BME280;48659;41.622;2.276;2023-04-06T11:45:09;100131.59;;;17.09;38.01
62592;BME280;48659;41.622;2.276;2023-04-06T11:47:37;100128.35;;;16.92;38.91
62592;BME280;48659;41.622;2.276;2023-04-06T11:50:08;100124.69;;;17.34;38.48
62592;BME280;48659;41.622;2.276;2023-04-06T11:52:36;100126.35;;;17.30;38.89
62592;BME280;48659;41.622;2.276;2023-04-06T11:55:14;100122.36;;;16.25;40.35
62592;BME280;48659;41.622;2.276;2023-04-06T11:57:41;100115.27;;;18.09;37.43
62592;BME280;48659;41.622;2.276;2023-04-06T12:00:09;100110.56;;;17.31;38.43
62592;BME280;48659;41.622;2.276;2023-04-06T12:02:37;100106.45;;;17.64;37.99
62592;BME280;48659;41.622;2.276;2023-04-06T12:05:06;100100.22;;;16.46;39.52
62592;BME280;48659;41.622;2.276;2023-04-06T12:07:34;100100.10;;;16.67;40.59
62592;BME280;48659;41.622;2.276;2023-04-06T12:10:02;100106.69;;;15.47;42.59
62592;BME280;48659;41.622;2.276;2023-04-06T12:12:29;100098.04;;;18.05;38.39
62592;BME280;48659;41.622;2.276;2023-04-06T12:14:57;100101.96;;;17.49;39.78
62592;BME280;48659;41.622;2.276;2023-04-06T12:17:25;100093.71;;;18.18;37.82
62592;BME280;48659;41.622;2.276;2023-04-06T12:19:53;100099.95;;;17.67;38.46
62592;BME280;48659;41.622;2.276;2023-04-06T12:22:21;100097.80;;;17.31;38.77
62592;BME280;48659;41.622;2.276;2023-04-06T12:24:48;100092.08;;;18.64;37.16
62592;BME280;48659;41.622;2.276;2023-04-06T12:27:15;100092.62;;;18.31;37.52
62592;BME280;48659;41.622;2.276;2023-04-06T12:29:42;100088.22;;;18.28;37.52
62592;BME280;48659;41.622;2.276;2023-04-06T12:32:10;100080.73;;;18.44;37.41
62592;BME280;48659;41.622;2.276;2023-04-06T12:34:38;100081.09;;;17.27;40.12
62592;BME280;48659;41.622;2.276;2023-04-06T12:37:06;100084.88;;;17.73;40.96
62592;BME280;48659;41.622;2.276;2023-04-06T12:39:34;100086.36;;;16.21;44.21
62592;BME280;48659;41.622;2.276;2023-04-06T12:42:02;100083.86;;;15.97;45.18
62592;BME280;48659;41.622;2.276;2023-04-06T12:44:29;100073.23;;;16.83;44.85
62592;BME280;48659;41.622;2.276;2023-04-06T12:46:56;100070.61;;;14.97;47.53
62592;BME280;48659;41.622;2.276;2023-04-06T12:49:23;100075.59;;;15.13;49.25
62592;BME280;48659;41.622;2.276;2023-04-06T12:51:51;100073.99;;;15.79;46.84
62592;BME280;48659;41.622;2.276;2023-04-06T12:54:18;100074.98;;;15.71;46.69
62592;BME280;48659;41.622;2.276;2023-04-06T12:56:46;100063.05;;;17.83;42.35
62592;BME280;48659;41.622;2.276;2023-04-06T12:59:12;100056.73;;;18.92;39.51